Flight Track Log - Related Links

Times and Time Zones

All times are in EDT time to prevent confusion due to time zone crossing. See the N87SM flight status page for this flight to view local times or setup timezone preferences in your user account.

Time Position Orientation Groundspeed Altitude Reporting Facility
EDT Latitude Longitude Course Direction KTS MPH feet Rate Location/Type
Tue 05:48:38 PM 34.3467 -77.8433 North 139 160 3,100  Level Washington Center
Tue 05:49:39 PM 34.3783 -77.8239 27° Northeast 139 160 4,100 1,059 Climbing Washington Center
Tue 05:50:37 PM 34.4122 -77.7972 33° Northeast 127 146 5,200 1,059 Climbing Washington Center
Tue 05:51:38 PM 34.4400 -77.7728 36° Northeast 127 146 6,200 992 Climbing Washington Center
Tue 05:52:00 PM 34.5231 -77.7240 30° Northeast  Level FlightAware Approximate
Tue 05:52:38 PM 34.4694 -77.7483 34° Northeast 122 140 7,200  Level Washington Center
Tue 05:53:00 PM 34.5678 -77.6995 22° Northeast  Level FlightAware Approximate
Tue 05:53:38 PM 34.5011 -77.7267 29° Northeast 122 140 7,900  Level Washington Center
Tue 05:54:00 PM 34.6143 -77.6833 North  Level FlightAware Approximate
Tue 05:54:39 PM 34.5328 -77.7072 27° Northeast 122 140 8,800  Level Washington Center
Tue 05:55:37 PM 34.5667 -77.6878 25° Northeast 122 140 9,600 814 Climbing Washington Center
Tue 05:56:37 PM 34.5983 -77.6661 29° Northeast 122 140 10,400 694 Climbing Washington Center
Tue 05:57:38 PM 34.6319 -77.6467 25° Northeast 122 140 11,000 344 Climbing Washington Center
Tue 05:58:39 PM 34.6719 -77.6225 26° Northeast 128 147 11,100 50 Climbing Washington Center
Tue 05:59:39 PM 34.7142 -77.5956 28° Northeast 147 169 11,100 -51 Level Washington Center
Tue 06:00:37 PM 34.7564 -77.5714 25° Northeast 158 182 11,000  Descending Washington Center
Tue 06:01:37 PM 34.8006 -77.5422 28° Northeast 158 182 11,100  Climbing Washington Center
Tue 06:02:38 PM 34.8386 -77.5203 25° Northeast 158 182 11,000 -49 Descending Washington Center
Tue 06:03:39 PM 34.8808 -77.4908 30° Northeast 158 182 11,000  Level Washington Center
Tue 06:04:37 PM 34.9250 -77.4642 26° Northeast 163 188 11,000  Level Washington Center
Tue 06:05:38 PM 34.9692 -77.4397 24° Northeast 163 188 11,000  Level Washington Center
Tue 06:06:39 PM 35.0114 -77.4128 28° Northeast 169 194 11,000  Level Washington Center
Tue 06:07:37 PM 35.0533 -77.3858 28° Northeast 169 194 11,000  Level Washington Center
Tue 06:08:37 PM 35.0978 -77.3589 26° Northeast 169 194 11,000  Level Washington Center
Tue 06:09:38 PM 35.1397 -77.3319 28° Northeast 169 194 11,000 49 Level Washington Center
Tue 06:10:39 PM 35.1842 -77.3022 29° Northeast 169 194 11,100 50 Climbing Washington Center
Tue 06:11:37 PM 35.2283 -77.2753 26° Northeast 169 194 11,100 -50 Level Washington Center
Tue 06:12:38 PM 35.2683 -77.2508 27° Northeast 168 193 11,000 -49 Descending Washington Center
Tue 06:13:39 PM 35.3144 -77.2211 28° Northeast 168 193 11,000 50 Level Washington Center
Tue 06:14:39 PM 35.3567 -77.1939 28° Northeast 168 193 11,100 51 Climbing Washington Center
Tue 06:15:37 PM 35.4008 -77.1669 26° Northeast 168 193 11,100  Level Washington Center
Tue 06:16:37 PM 35.4450 -77.1397 27° Northeast 173 199 11,100  Level Washington Center
Tue 06:17:38 PM 35.4850 -77.1122 29° Northeast 173 199 11,100  Level Washington Center
Tue 06:18:38 PM 35.5292 -77.0850 27° Northeast 167 192 11,100  Level Washington Center
Tue 06:19:39 PM 35.5711 -77.0578 28° Northeast 167 192 11,100  Level Washington Center
Tue 06:20:37 PM 35.6153 -77.0306 27° Northeast 167 192 11,100  Level Washington Center
Tue 06:21:38 PM 35.6553 -77.0006 31° Northeast 167 192 11,100  Level Washington Center
Tue 06:22:39 PM 35.6975 -76.9706 30° Northeast 167 192 11,100  Level Washington Center
Tue 06:23:37 PM 35.7417 -76.9458 24° Northeast 167 192 11,100  Level Washington Center
Tue 06:24:38 PM 35.7814 -76.9208 27° Northeast 167 192 11,100  Level Washington Center
Tue 06:25:38 PM 35.8256 -76.8933 27° Northeast 167 192 11,100 50 Level Washington Center
Tue 06:26:39 PM 35.8697 -76.8711 22° Northeast 167 192 11,200 50 Climbing Washington Center
Tue 06:27:37 PM 35.9117 -76.8408 30° Northeast 167 192 11,200 -50 Level Washington Center
Tue 06:28:38 PM 35.9517 -76.8158 27° Northeast 167 192 11,100 -49 Descending Washington Center
Tue 06:29:39 PM 35.9956 -76.7908 25° Northeast 167 192 11,100  Level Washington Center
Tue 06:30:37 PM 36.0378 -76.7633 28° Northeast 167 192 11,100  Level Washington Center
Tue 06:31:01 PM 36.0606 -76.7561 14° North 171 197 11,100 98 Level Washington Center
Tue 06:31:38 PM 36.0817 -76.7358 38° Northeast 167 192 11,200 109 Climbing Washington Center
Tue 06:31:56 PM 36.1006 -76.7333 North 173 199 11,200 -98 Level Washington Center
Tue 06:32:39 PM 36.1258 -76.7106 36° Northeast 167 192 11,100  Descending Washington Center
Tue 06:32:57 PM 36.1425 -76.7058 13° North 173 199 11,200  Climbing Washington Center
Tue 06:33:39 PM 36.1656 -76.6828 39° Northeast 167 192 11,100 -98 Descending Washington Center
Tue 06:33:58 PM 36.1844 -76.6781 11° North 172 198 11,100  Level Washington Center
Tue 06:34:37 PM 36.2078 -76.6578 35° Northeast 167 192 11,100  Level Washington Center
Tue 06:34:58 PM 36.2286 -76.6503 16° North 171 197 11,100 100 Level Washington Center
Tue 06:35:37 PM 36.2517 -76.6300 35° Northeast 167 192 11,200  Climbing Washington Center
Tue 06:35:59 PM 36.2706 -76.6225 18° North 172 198 11,100 -98 Descending Washington Center
Tue 06:36:38 PM 36.2958 -76.6047 30° Northeast 162 186 11,100  Level Washington Center
Tue 06:36:59 PM 36.3106 -76.5947 29° Northeast 172 198 11,100  Level Washington Center
Tue 06:37:39 PM 36.3378 -76.5769 28° Northeast 162 186 11,100  Level Washington Center
Tue 06:38:00 PM 36.3564 -76.5694 18° North 173 199 11,100  Level Washington Center
Tue 06:38:39 PM 36.3839 -76.5492 31° Northeast 162 186 11,100  Level Washington Center
Tue 06:39:00 PM 36.4006 -76.5417 20° North 173 199 11,100  Level Washington Center
Tue 06:39:37 PM 36.4278 -76.5239 28° Northeast 162 186 11,100  Level Washington Center
Tue 06:40:01 PM 36.4447 -76.5136 26° Northeast 174 200 11,100  Level Washington Center
Tue 06:40:38 PM 36.4697 -76.4958 30° Northeast 162 186 11,100  Level Washington Center
Tue 06:41:02 PM 36.4867 -76.4858 25° Northeast 175 201 11,100 71 Level Washington Center
Tue 06:42:03 PM 36.5306 -76.4606 25° Northeast 175 201 11,200  Climbing Washington Center
Tue 06:43:04 PM 36.5725 -76.4300 30° Northeast 175 201 11,100 -50 Descending Washington Center
Tue 06:44:02 PM 36.6186 -76.4044 24° Northeast 174 200 11,100  Level Washington Center
Tue 06:45:02 PM 36.6625 -76.3764 27° Northeast 174 200 11,100  Level Washington Center
Tue 06:46:06 PM 36.7067 -76.3483 27° Northeast 173 199 11,100  Level Washington Center
Tue 06:47:06 PM 36.7483 -76.3203 28° Northeast 173 199 11,100  Level Washington Center
Tue 06:48:07 PM 36.7925 -76.2947 25° Northeast 173 199 11,100  Level Washington Center
Tue 06:49:07 PM 36.8342 -76.2667 28° Northeast 174 200 11,100  Level Washington Center
Tue 06:50:08 PM 36.8803 -76.2383 26° Northeast 174 200 11,100  Level Washington Center
Tue 06:51:08 PM 36.9242 -76.2078 29° Northeast 175 201 11,100  Level Washington Center
Tue 06:52:08 PM 36.9661 -76.1794 28° Northeast 175 201 11,100  Level Washington Center
Tue 06:53:10 PM 37.0081 -76.1536 26° Northeast 174 200 11,100  Level Washington Center
Tue 06:53:37 PM 37.0372 -76.1356 26° Northeast 173 199 11,100  Level Washington Center
Tue 06:54:10 PM 37.0497 -76.1253 33° Northeast 171 197 11,100  Level Washington Center
Tue 06:54:38 PM 37.0792 -76.1125 19° North 173 199 11,100  Level Washington Center
Tue 06:55:08 PM 37.0958 -76.0997 31° Northeast 171 197 11,100  Level Washington Center
Tue 06:55:39 PM 37.1167 -76.0842 31° Northeast 173 199 11,100  Level Washington Center
Tue 06:56:09 PM 37.1378 -76.0714 26° Northeast 172 198 11,100  Level Washington Center
Tue 06:56:37 PM 37.1586 -76.0583 27° Northeast 173 199 11,100  Level Washington Center
Tue 06:57:10 PM 37.1794 -76.0428 31° Northeast 172 198 11,100  Level Washington Center
Tue 06:57:38 PM 37.2025 -76.0272 28° Northeast 173 199 11,100  Level Washington Center
Tue 06:58:11 PM 37.2214 -76.0169 23° Northeast 172 198 11,100  Level Washington Center
Tue 06:58:38 PM 37.2444 -76.0014 28° Northeast 173 199 11,100  Level Washington Center
Tue 06:59:12 PM 37.2653 -75.9886 26° Northeast 171 197 11,100  Level Washington Center
Tue 06:59:39 PM 37.2883 -75.9731 28° Northeast 173 199 11,100  Level Washington Center
Tue 07:00:18 PM 37.3153 -75.9547 28° Northeast 173 199 11,100  Level Washington Center
Tue 07:00:39 PM 37.3300 -75.9469 23° Northeast 173 199 11,100  Level Washington Center
Tue 07:01:18 PM 37.3572 -75.9264 31° Northeast 172 198 11,100  Level Washington Center
Tue 07:01:39 PM 37.3739 -75.9186 20° North 173 199 11,100  Level Washington Center
Tue 07:02:13 PM 37.3969 -75.9028 29° Northeast 172 198 11,100  Level Washington Center
Tue 07:02:38 PM 37.4136 -75.8925 26° Northeast 173 199 11,100  Level Washington Center
Tue 07:03:38 PM 37.4575 -75.8639 27° Northeast 188 216 11,100  Level Washington Center
Tue 07:04:39 PM 37.5014 -75.8353 27° Northeast 182 209 11,100  Level Washington Center
Tue 07:05:39 PM 37.5411 -75.8014 34° Northeast 175 201 11,100 51 Level Washington Center
Tue 07:06:37 PM 37.5808 -75.7675 34° Northeast 170 196 11,200  Climbing Washington Center
Tue 07:07:37 PM 37.6203 -75.7361 32° Northeast 164 189 11,100 -50 Descending Washington Center
Tue 07:08:38 PM 37.6622 -75.7047 31° Northeast 164 189 11,100  Level Washington Center
Tue 07:09:39 PM 37.7017 -75.6678 37° Northeast 164 189 11,100  Level Washington Center
Tue 07:10:39 PM 37.7436 -75.6392 28° Northeast 170 196 11,100  Level Washington Center
Tue 07:11:39 PM 37.7853 -75.6022 35° Northeast 165 190 11,100  Level Washington Center
Tue 07:12:37 PM 37.8269 -75.5708 31° Northeast 165 190 11,100  Level Washington Center
Tue 07:13:38 PM 37.8667 -75.5392 32° Northeast 165 190 11,100  Level Washington Center
Tue 07:14:39 PM 37.9061 -75.5050 34° Northeast 165 190 11,100  Level Washington Center
Tue 07:15:37 PM 37.9478 -75.4706 33° Northeast 171 197 11,100  Level Washington Center
Tue 07:16:38 PM 37.9875 -75.4364 34° Northeast 171 197 11,100  Level Washington Center
Tue 07:17:39 PM 38.0269 -75.4044 33° Northeast 171 197 11,100 50 Level Washington Center
Tue 07:18:39 PM 38.0686 -75.3703 33° Northeast 171 197 11,200 51 Climbing Washington Center
Tue 07:19:37 PM 38.1103 -75.3383 31° Northeast 165 190 11,200  Level Washington Center
Tue 07:20:38 PM 38.1519 -75.3067 31° Northeast 165 190 11,200  Level Washington Center
Tue 07:21:39 PM 38.1914 -75.2719 35° Northeast 165 190 11,200  Level Washington Center
Tue 07:22:39 PM 38.2331 -75.2375 33° Northeast 165 190 11,200  Level Washington Center
Tue 07:23:37 PM 38.2725 -75.2056 32° Northeast 165 190 11,200  Level Washington Center
Tue 07:24:37 PM 38.3161 -75.1656 36° Northeast 165 190 11,200  Level Washington Center
Tue 07:25:38 PM 38.3558 -75.1336 32° Northeast 170 196 11,200  Level Washington Center
Tue 07:26:39 PM 38.3972 -75.0989 33° Northeast 170 196 11,200  Level Washington Center
Tue 07:27:37 PM 38.4367 -75.0617 36° Northeast 170 196 11,200  Level Washington Center
Tue 07:28:37 PM 38.4783 -75.0322 29° Northeast 170 196 11,200  Level Washington Center
Tue 07:29:37 PM 38.5178 -74.9947 37° Northeast 170 196 11,200  Level Washington Center
Tue 07:30:37 PM 38.5531 -74.9572 40° Northeast 170 196 11,200  Level Washington Center
Tue 07:31:39 PM 38.5903 -74.9144 42° Northeast 170 196 11,200  Level Washington Center
Tue 07:32:37 PM 38.6256 -74.8769 40° Northeast 170 196 11,200  Level Washington Center
Tue 07:33:37 PM 38.6628 -74.8419 36° Northeast 170 196 11,200  Level Washington Center
Tue 07:34:38 PM 38.7022 -74.7989 40° Northeast 170 196 11,200  Level Washington Center
Tue 07:35:39 PM 38.7394 -74.7586 40° Northeast 170 196 11,200  Level Washington Center
Tue 07:36:37 PM 38.7767 -74.7183 40° Northeast 170 196 11,200  Level Washington Center
Tue 07:37:38 PM 38.8139 -74.6753 42° Northeast 176 203 11,200  Level Washington Center
Tue 07:38:39 PM 38.8531 -74.6372 37° Northeast 176 203 11,200  Level Washington Center
Tue 07:39:39 PM 38.8903 -74.5994 38° Northeast 176 203 11,200  Level Washington Center
Tue 07:40:39 PM 38.9275 -74.5589 40° Northeast 171 197 11,200  Level Washington Center
Tue 07:41:37 PM 38.9647 -74.5211 38° Northeast 176 203 11,200  Level Washington Center
Tue 07:42:37 PM 39.0019 -74.4806 40° Northeast 176 203 11,200  Level Washington Center
Tue 07:43:38 PM 39.0389 -74.4372 42° Northeast 171 197 11,200  Level Washington Center
Tue 07:44:39 PM 39.0761 -74.3992 38° Northeast 171 197 11,200  Level Washington Center
Tue 07:46:16 PM 39.1339 -74.3386 39° Northeast 166 191 11,200  Level New York Center
Tue 07:47:17 PM 39.1728 -74.2978 39° Northeast 166 191 11,200  Level New York Center
Tue 07:48:19 PM 39.2094 -74.2594 39° Northeast 166 191 11,200  Level New York Center
Tue 07:49:16 PM 39.2461 -74.2183 41° Northeast 166 191 11,200  Level New York Center
Tue 07:50:18 PM 39.2847 -74.1772 39° Northeast 166 191 11,200  Level New York Center
Tue 07:51:16 PM 39.3214 -74.1361 41° Northeast 166 191 11,200  Level New York Center
Tue 07:52:17 PM 39.3600 -74.0978 38° Northeast 166 191 11,200  Level New York Center
Tue 07:53:17 PM 39.3967 -74.0536 43° Northeast 171 197 11,200  Level New York Center
Tue 07:54:15 PM 39.4353 -74.0125 39° Northeast 171 197 11,200  Level New York Center
Tue 07:55:16 PM 39.4783 -73.9661 40° Northeast 171 197 11,200  Level New York Center
Tue 07:56:17 PM 39.5106 -73.9297 41° Northeast 171 197 11,200  Level New York Center
Tue 07:57:18 PM 39.5492 -73.8886 39° Northeast 171 197 11,200  Level New York Center
Tue 07:58:18 PM 39.5900 -73.8444 40° Northeast 171 197 11,200  Level New York Center
Tue 07:59:18 PM 39.6267 -73.8031 41° Northeast 171 197 11,200  Level New York Center
Tue 08:00:16 PM 39.6589 -73.7667 41° Northeast 171 197 11,200  Level New York Center
Tue 08:01:17 PM 39.6972 -73.7278 38° Northeast 166 191 11,200 -49 Level New York Center
Tue 08:02:18 PM 39.7339 -73.6861 41° Northeast 172 198 11,100 -50 Descending New York Center
Tue 08:03:16 PM 39.7725 -73.6419 41° Northeast 172 198 11,100 -50 Level New York Center
Tue 08:04:18 PM 39.8111 -73.5975 41° Northeast 172 198 11,000 -379 Descending New York Center
Tue 08:06:26 PM 39.9011 -73.5003 40° Northeast 184 212 9,900 -638 Descending Boston Center
Tue 08:07:26 PM 39.9431 -73.4550 40° Northeast 190 219 9,000 -600 Descending Boston Center
Tue 08:08:26 PM 39.9892 -73.4231 28° Northeast 190 219 8,700 -500 Descending Boston Center
Tue 08:09:26 PM 40.0456 -73.4103 10° North 190 219 8,000 -650 Descending Boston Center
Tue 08:10:26 PM 40.0978 -73.3894 17° North 190 219 7,400 -650 Descending Boston Center
Tue 08:11:26 PM 40.1481 -73.3683 18° North 190 219 6,700 -650 Descending Boston Center
Tue 08:12:26 PM 40.1983 -73.3500 16° North 185 213 6,100 -650 Descending Boston Center
Tue 08:13:26 PM 40.2483 -73.3264 20° North 185 213 5,400 -700 Descending Boston Center

Login

Don't have an account? Register now (free) for customized features, flight alerts, and more!